sensor_id;sensor_type;location;lat;lon;timestamp;temperature;humidity
33095;DHT22;19459;53.044;8.910;2023-05-13T00:01:53;12.90;99.90
33095;DHT22;19459;53.044;8.910;2023-05-13T00:04:19;12.90;99.90
33095;DHT22;19459;53.044;8.910;2023-05-13T00:06:45;12.80;99.90
33095;DHT22;19459;53.044;8.910;2023-05-13T00:09:11;12.80;99.90
33095;DHT22;19459;53.044;8.910;2023-05-13T00:11:37;12.70;99.90
33095;DHT22;19459;53.044;8.910;2023-05-13T00:14:03;12.70;99.90
33095;DHT22;19459;53.044;8.910;2023-05-13T00:16:35;12.70;99.90
33095;DHT22;19459;53.044;8.910;2023-05-13T00:19:00;12.60;99.90
33095;DHT22;19459;53.044;8.910;2023-05-13T00:21:26;12.60;99.90
33095;DHT22;19459;53.044;8.910;2023-05-13T00:23:52;12.60;99.90
33095;DHT22;19459;53.044;8.910;2023-05-13T00:26:18;12.60;99.90
33095;DHT22;19459;53.044;8.910;2023-05-13T00:28:44;12.50;99.90
33095;DHT22;19459;53.044;8.910;2023-05-13T00:31:10;12.50;99.90
33095;DHT22;19459;53.044;8.910;2023-05-13T00:33:36;12.50;99.90
33095;DHT22;19459;53.044;8.910;2023-05-13T00:36:02;12.50;99.90
33095;DHT22;19459;53.044;8.910;2023-05-13T00:38:28;12.40;99.90
33095;DHT22;19459;53.044;8.910;2023-05-13T00:40:54;12.40;99.90
33095;DHT22;19459;53.044;8.910;2023-05-13T00:43:20;12.40;99.90
33095;DHT22;19459;53.044;8.910;2023-05-13T00:45:46;12.30;99.90
33095;DHT22;19459;53.044;8.910;2023-05-13T00:48:12;12.30;99.90
33095;DHT22;19459;53.044;8.910;2023-05-13T00:50:38;12.30;99.90
33095;DHT22;19459;53.044;8.910;2023-05-13T00:53:06;12.30;99.90
33095;DHT22;19459;53.044;8.910;2023-05-13T00:55:32;12.20;99.90
33095;DHT22;19459;53.044;8.910;2023-05-13T00:57:58;12.20;99.90
33095;DHT22;19459;53.044;8.910;2023-05-13T01:00:24;12.10;99.90
33095;DHT22;19459;53.044;8.910;2023-05-13T01:03:01;12.10;99.90
33095;DHT22;19459;53.044;8.910;2023-05-13T01:05:52;12.10;99.90
33095;DHT22;19459;53.044;8.910;2023-05-13T01:08:38;12.10;99.90
33095;DHT22;19459;53.044;8.910;2023-05-13T01:11:35;12.00;99.90
33095;DHT22;19459;53.044;8.910;2023-05-13T01:14:18;12.00;99.90
33095;DHT22;19459;53.044;8.910;2023-05-13T01:17:06;11.90;99.90
33095;DHT22;19459;53.044;8.910;2023-05-13T01:19:54;11.90;99.90
33095;DHT22;19459;53.044;8.910;2023-05-13T01:22:20;11.90;99.90
33095;DHT22;19459;53.044;8.910;2023-05-13T01:24:46;11.80;99.90
33095;DHT22;19459;53.044;8.910;2023-05-13T01:27:13;11.80;99.90
33095;DHT22;19459;53.044;8.910;2023-05-13T01:29:39;11.80;99.90
33095;DHT22;19459;53.044;8.910;2023-05-13T01:32:06;11.80;99.90
33095;DHT22;19459;53.044;8.910;2023-05-13T01:34:35;11.70;99.90
33095;DHT22;19459;53.044;8.910;2023-05-13T01:37:01;11.70;99.90
33095;DHT22;19459;53.044;8.910;2023-05-13T01:39:27;11.70;99.90
33095;DHT22;19459;53.044;8.910;2023-05-13T01:41:55;11.60;99.90
33095;DHT22;19459;53.044;8.910;2023-05-13T01:44:21;11.50;99.90
33095;DHT22;19459;53.044;8.910;2023-05-13T01:46:46;11.60;99.90
33095;DHT22;19459;53.044;8.910;2023-05-13T01:49:15;11.50;99.90
33095;DHT22;19459;53.044;8.910;2023-05-13T01:51:41;11.40;99.90
33095;DHT22;19459;53.044;8.910;2023-05-13T01:54:07;11.40;99.90
33095;DHT22;19459;53.044;8.910;2023-05-13T01:56:33;11.30;99.90
33095;DHT22;19459;53.044;8.910;2023-05-13T01:58:58;11.30;99.90
33095;DHT22;19459;53.044;8.910;2023-05-13T02:01:25;11.30;99.90
33095;DHT22;19459;53.044;8.910;2023-05-13T02:03:51;11.30;99.90
33095;DHT22;19459;53.044;8.910;2023-05-13T02:06:18;11.20;99.90
33095;DHT22;19459;53.044;8.910;2023-05-13T02:08:44;11.20;99.90
33095;DHT22;19459;53.044;8.910;2023-05-13T02:11:09;11.20;99.90
33095;DHT22;19459;53.044;8.910;2023-05-13T02:13:35;11.10;99.90
33095;DHT22;19459;53.044;8.910;2023-05-13T02:16:01;11.10;99.90
33095;DHT22;19459;53.044;8.910;2023-05-13T02:18:27;11.10;99.90
33095;DHT22;19459;53.044;8.910;2023-05-13T02:20:53;11.10;99.90
33095;DHT22;19459;53.044;8.910;2023-05-13T02:23:19;11.00;99.90
33095;DHT22;19459;53.044;8.910;2023-05-13T02:25:45;11.00;99.90
33095;DHT22;19459;53.044;8.910;2023-05-13T02:28:10;11.00;99.90
33095;DHT22;19459;53.044;8.910;2023-05-13T02:30:36;11.00;99.90
33095;DHT22;19459;53.044;8.910;2023-05-13T02:33:02;11.00;99.90
33095;DHT22;19459;53.044;8.910;2023-05-13T02:35:28;10.90;99.90
33095;DHT22;19459;53.044;8.910;2023-05-13T02:37:57;10.90;99.90
33095;DHT22;19459;53.044;8.910;2023-05-13T02:40:23;10.90;99.90
33095;DHT22;19459;53.044;8.910;2023-05-13T02:42:51;10.80;99.90
33095;DHT22;19459;53.044;8.910;2023-05-13T02:45:17;10.80;99.90
33095;DHT22;19459;53.044;8.910;2023-05-13T02:47:43;10.80;99.90
33095;DHT22;19459;53.044;8.910;2023-05-13T02:50:09;10.80;99.90
33095;DHT22;19459;53.044;8.910;2023-05-13T02:52:36;10.80;99.90
33095;DHT22;19459;53.044;8.910;2023-05-13T02:55:05;10.70;99.90
33095;DHT22;19459;53.044;8.910;2023-05-13T02:57:32;10.70;99.90
33095;DHT22;19459;53.044;8.910;2023-05-13T02:59:58;10.70;99.90
33095;DHT22;19459;53.044;8.910;2023-05-13T03:02:23;10.60;99.90
33095;DHT22;19459;53.044;8.910;2023-05-13T03:04:49;10.60;99.90
33095;DHT22;19459;53.044;8.910;2023-05-13T03:07:15;10.60;99.90
33095;DHT22;19459;53.044;8.910;2023-05-13T03:09:41;10.50;99.90
33095;DHT22;19459;53.044;8.910;2023-05-13T03:12:07;10.60;99.90
33095;DHT22;19459;53.044;8.910;2023-05-13T03:14:33;10.50;99.90
33095;DHT22;19459;53.044;8.910;2023-05-13T03:17:04;10.50;99.90
33095;DHT22;19459;53.044;8.910;2023-05-13T03:19:32;10.50;99.90
33095;DHT22;19459;53.044;8.910;2023-05-13T03:21:59;10.50;99.90
33095;DHT22;19459;53.044;8.910;2023-05-13T03:24:25;10.40;99.90
33095;DHT22;19459;53.044;8.910;2023-05-13T03:26:51;10.40;99.90
33095;DHT22;19459;53.044;8.910;2023-05-13T03:29:16;10.40;99.90
33095;DHT22;19459;53.044;8.910;2023-05-13T03:31:42;10.40;99.90
33095;DHT22;19459;53.044;8.910;2023-05-13T03:34:08;10.40;99.90
33095;DHT22;19459;53.044;8.910;2023-05-13T03:36:34;10.40;99.90
33095;DHT22;19459;53.044;8.910;2023-05-13T03:38:59;10.30;99.90
33095;DHT22;19459;53.044;8.910;2023-05-13T03:41:25;10.30;99.90
33095;DHT22;19459;53.044;8.910;2023-05-13T03:43:53;10.30;99.90
33095;DHT22;19459;53.044;8.910;2023-05-13T03:46:19;10.30;99.90
33095;DHT22;19459;53.044;8.910;2023-05-13T03:48:46;10.30;99.90
33095;DHT22;19459;53.044;8.910;2023-05-13T03:51:12;10.30;99.90
33095;DHT22;19459;53.044;8.910;2023-05-13T03:53:37;10.30;99.90
33095;DHT22;19459;53.044;8.910;2023-05-13T03:56:04;10.20;99.90
33095;DHT22;19459;53.044;8.910;2023-05-13T03:58:30;10.20;99.90
33095;DHT22;19459;53.044;8.910;2023-05-13T04:00:58;10.20;99.90
33095;DHT22;19459;53.044;8.910;2023-05-13T04:03:24;10.20;99.90
33095;DHT22;19459;53.044;8.910;2023-05-13T04:05:51;10.20;99.90
33095;DHT22;19459;53.044;8.910;2023-05-13T04:08:17;10.20;99.90
33095;DHT22;19459;53.044;8.910;2023-05-13T04:10:42;10.20;99.90
33095;DHT22;19459;53.044;8.910;2023-05-13T04:13:09;10.20;99.90
33095;DHT22;19459;53.044;8.910;2023-05-13T04:15:35;10.20;99.90
33095;DHT22;19459;53.044;8.910;2023-05-13T04:18:01;10.30;99.90
33095;DHT22;19459;53.044;8.910;2023-05-13T04:20:27;10.30;99.90
33095;DHT22;19459;53.044;8.910;2023-05-13T04:22:53;10.30;99.90
33095;DHT22;19459;53.044;8.910;2023-05-13T04:25:19;10.30;99.90
33095;DHT22;19459;53.044;8.910;2023-05-13T04:27:45;10.30;99.90
33095;DHT22;19459;53.044;8.910;2023-05-13T04:30:12;10.30;99.90
33095;DHT22;19459;53.044;8.910;2023-05-13T04:32:38;10.30;99.90
33095;DHT22;19459;53.044;8.910;2023-05-13T04:35:06;10.30;99.90
33095;DHT22;19459;53.044;8.910;2023-05-13T04:37:32;10.40;99.90
33095;DHT22;19459;53.044;8.910;2023-05-13T04:39:58;10.40;99.90
33095;DHT22;19459;53.044;8.910;2023-05-13T04:42:24;10.40;99.90
33095;DHT22;19459;53.044;8.910;2023-05-13T04:44:50;10.40;99.90
33095;DHT22;19459;53.044;8.910;2023-05-13T04:47:15;10.50;99.90
33095;DHT22;19459;53.044;8.910;2023-05-13T04:49:41;10.50;99.90
33095;DHT22;19459;53.044;8.910;2023-05-13T04:52:07;10.60;99.90
33095;DHT22;19459;53.044;8.910;2023-05-13T04:54:33;10.70;99.90
33095;DHT22;19459;53.044;8.910;2023-05-13T04:57:01;10.70;99.90
33095;DHT22;19459;53.044;8.910;2023-05-13T04:59:27;10.80;99.90
33095;DHT22;19459;53.044;8.910;2023-05-13T05:01:52;10.80;99.90
33095;DHT22;19459;53.044;8.910;2023-05-13T05:04:19;10.90;99.90
33095;DHT22;19459;53.044;8.910;2023-05-13T05:06:45;10.90;99.90
33095;DHT22;19459;53.044;8.910;2023-05-13T05:09:13;11.00;99.90
33095;DHT22;19459;53.044;8.910;2023-05-13T05:11:39;11.00;99.90
33095;DHT22;19459;53.044;8.910;2023-05-13T05:14:05;11.10;99.90
33095;DHT22;19459;53.044;8.910;2023-05-13T05:16:31;11.20;99.90
33095;DHT22;19459;53.044;8.910;2023-05-13T05:18:56;11.20;99.90
33095;DHT22;19459;53.044;8.910;2023-05-13T05:21:22;11.30;99.90
33095;DHT22;19459;53.044;8.910;2023-05-13T05:23:48;11.40;99.90
33095;DHT22;19459;53.044;8.910;2023-05-13T05:26:14;11.50;99.90
33095;DHT22;19459;53.044;8.910;2023-05-13T05:28:41;11.60;99.90
33095;DHT22;19459;53.044;8.910;2023-05-13T05:31:07;11.60;99.90
33095;DHT22;19459;53.044;8.910;2023-05-13T05:33:34;11.70;99.90
33095;DHT22;19459;53.044;8.910;2023-05-13T05:36:01;11.80;99.90
33095;DHT22;19459;53.044;8.910;2023-05-13T05:38:26;11.90;99.90
33095;DHT22;19459;53.044;8.910;2023-05-13T05:40:52;12.00;99.90
33095;DHT22;19459;53.044;8.910;2023-05-13T05:43:18;12.10;99.90
33095;DHT22;19459;53.044;8.910;2023-05-13T05:45:44;12.10;99.90
33095;DHT22;19459;53.044;8.910;2023-05-13T05:48:10;12.20;99.90
33095;DHT22;19459;53.044;8.910;2023-05-13T05:50:36;12.30;99.90
33095;DHT22;19459;53.044;8.910;2023-05-13T05:53:02;12.40;99.90
33095;DHT22;19459;53.044;8.910;2023-05-13T05:55:29;12.50;99.90
33095;DHT22;19459;53.044;8.910;2023-05-13T05:57:56;12.60;99.90
33095;DHT22;19459;53.044;8.910;2023-05-13T06:00:23;12.60;99.90
33095;DHT22;19459;53.044;8.910;2023-05-13T06:02:49;12.80;99.90
33095;DHT22;19459;53.044;8.910;2023-05-13T06:05:15;12.80;99.90
33095;DHT22;19459;53.044;8.910;2023-05-13T06:07:41;12.90;99.90
33095;DHT22;19459;53.044;8.910;2023-05-13T06:10:07;13.00;99.90
33095;DHT22;19459;53.044;8.910;2023-05-13T06:12:33;13.10;99.90
33095;DHT22;19459;53.044;8.910;2023-05-13T06:15:00;13.10;99.90
33095;DHT22;19459;53.044;8.910;2023-05-13T06:17:26;13.20;99.90
33095;DHT22;19459;53.044;8.910;2023-05-13T06:19:52;13.30;99.90
33095;DHT22;19459;53.044;8.910;2023-05-13T06:22:17;13.40;99.90
33095;DHT22;19459;53.044;8.910;2023-05-13T06:24:43;13.50;99.90
33095;DHT22;19459;53.044;8.910;2023-05-13T06:27:12;13.70;99.90
33095;DHT22;19459;53.044;8.910;2023-05-13T06:29:38;13.80;99.90
33095;DHT22;19459;53.044;8.910;2023-05-13T06:32:04;13.90;99.90
33095;DHT22;19459;53.044;8.910;2023-05-13T06:34:31;14.00;99.90
33095;DHT22;19459;53.044;8.910;2023-05-13T06:36:56;14.20;99.90
33095;DHT22;19459;53.044;8.910;2023-05-13T06:39:22;14.30;99.90
33095;DHT22;19459;53.044;8.910;2023-05-13T06:41:50;14.40;99.90
33095;DHT22;19459;53.044;8.910;2023-05-13T06:44:16;14.50;99.90
33095;DHT22;19459;53.044;8.910;2023-05-13T06:46:42;14.60;99.90
33095;DHT22;19459;53.044;8.910;2023-05-13T06:49:07;14.80;99.90
33095;DHT22;19459;53.044;8.910;2023-05-13T06:51:33;14.90;99.90
33095;DHT22;19459;53.044;8.910;2023-05-13T06:54:00;15.10;99.90
33095;DHT22;19459;53.044;8.910;2023-05-13T06:56:26;15.10;99.90
33095;DHT22;19459;53.044;8.910;2023-05-13T06:58:52;15.30;99.90
33095;DHT22;19459;53.044;8.910;2023-05-13T07:01:18;15.40;99.90
33095;DHT22;19459;53.044;8.910;2023-05-13T07:03:43;15.50;99.90
33095;DHT22;19459;53.044;8.910;2023-05-13T07:06:10;15.60;99.90
33095;DHT22;19459;53.044;8.910;2023-05-13T07:08:37;15.80;99.90
33095;DHT22;19459;53.044;8.910;2023-05-13T07:11:03;15.90;99.90
33095;DHT22;19459;53.044;8.910;2023-05-13T07:13:29;16.10;99.90
33095;DHT22;19459;53.044;8.910;2023-05-13T07:15:57;16.20;99.90
33095;DHT22;19459;53.044;8.910;2023-05-13T07:18:23;16.40;99.90
33095;DHT22;19459;53.044;8.910;2023-05-13T07:20:49;16.60;99.90
33095;DHT22;19459;53.044;8.910;2023-05-13T07:23:15;16.70;99.90
33095;DHT22;19459;53.044;8.910;2023-05-13T07:25:42;16.90;99.90
33095;DHT22;19459;53.044;8.910;2023-05-13T07:28:07;17.00;99.90
33095;DHT22;19459;53.044;8.910;2023-05-13T07:30:33;17.20;99.90
33095;DHT22;19459;53.044;8.910;2023-05-13T07:32:59;17.40;99.90
33095;DHT22;19459;53.044;8.910;2023-05-13T07:35:25;17.60;99.90
33095;DHT22;19459;53.044;8.910;2023-05-13T07:37:50;17.80;99.90
33095;DHT22;19459;53.044;8.910;2023-05-13T07:40:16;17.90;99.90
33095;DHT22;19459;53.044;8.910;2023-05-13T07:42:42;18.00;99.90
33095;DHT22;19459;53.044;8.910;2023-05-13T07:45:09;18.20;99.90
33095;DHT22;19459;53.044;8.910;2023-05-13T07:47:35;18.30;99.90
33095;DHT22;19459;53.044;8.910;2023-05-13T07:50:01;18.50;99.90
33095;DHT22;19459;53.044;8.910;2023-05-13T07:52:26;18.70;99.90
33095;DHT22;19459;53.044;8.910;2023-05-13T07:54:53;18.90;99.90
33095;DHT22;19459;53.044;8.910;2023-05-13T07:57:19;19.00;99.90
33095;DHT22;19459;53.044;8.910;2023-05-13T07:59:45;19.10;99.90
33095;DHT22;19459;53.044;8.910;2023-05-13T08:02:11;19.20;99.90
33095;DHT22;19459;53.044;8.910;2023-05-13T08:04:37;19.40;99.90
33095;DHT22;19459;53.044;8.910;2023-05-13T08:07:03;19.50;99.90
33095;DHT22;19459;53.044;8.910;2023-05-13T08:09:29;19.70;99.90
33095;DHT22;19459;53.044;8.910;2023-05-13T08:11:54;20.00;99.90
33095;DHT22;19459;53.044;8.910;2023-05-13T08:14:21;20.10;99.90
33095;DHT22;19459;53.044;8.910;2023-05-13T08:16:47;20.20;99.90
33095;DHT22;19459;53.044;8.910;2023-05-13T08:19:13;20.40;99.90
33095;DHT22;19459;53.044;8.910;2023-05-13T08:21:39;20.60;99.90
33095;DHT22;19459;53.044;8.910;2023-05-13T08:24:05;20.70;99.90
33095;DHT22;19459;53.044;8.910;2023-05-13T08:26:32;21.00;99.90
33095;DHT22;19459;53.044;8.910;2023-05-13T08:28:58;21.20;99.90
33095;DHT22;19459;53.044;8.910;2023-05-13T08:31:24;21.30;98.90
33095;DHT22;19459;53.044;8.910;2023-05-13T08:33:51;21.40;97.40
33095;DHT22;19459;53.044;8.910;2023-05-13T08:36:18;21.20;98.10
33095;DHT22;19459;53.044;8.910;2023-05-13T08:38:44;21.30;98.30
33095;DHT22;19459;53.044;8.910;2023-05-13T08:41:14;21.60;98.40
33095;DHT22;19459;53.044;8.910;2023-05-13T08:43:42;21.70;97.70
33095;DHT22;19459;53.044;8.910;2023-05-13T08:46:10;21.80;97.60
33095;DHT22;19459;53.044;8.910;2023-05-13T08:48:40;21.90;97.70
33095;DHT22;19459;53.044;8.910;2023-05-13T08:51:07;22.20;97.60
33095;DHT22;19459;53.044;8.910;2023-05-13T08:53:34;22.40;96.70
33095;DHT22;19459;53.044;8.910;2023-05-13T08:56:07;22.40;96.90
33095;DHT22;19459;53.044;8.910;2023-05-13T08:58:34;22.60;96.70
33095;DHT22;19459;53.044;8.910;2023-05-13T09:01:00;22.80;95.70
33095;DHT22;19459;53.044;8.910;2023-05-13T09:03:28;23.00;95.60
33095;DHT22;19459;53.044;8.910;2023-05-13T09:05:54;22.90;95.10
33095;DHT22;19459;53.044;8.910;2023-05-13T09:08:19;23.20;96.40
33095;DHT22;19459;53.044;8.910;2023-05-13T09:10:45;23.30;95.50
33095;DHT22;19459;53.044;8.910;2023-05-13T09:13:12;23.40;95.30
33095;DHT22;19459;53.044;8.910;2023-05-13T09:15:40;23.60;94.90
33095;DHT22;19459;53.044;8.910;2023-05-13T09:18:07;23.70;93.80
33095;DHT22;19459;53.044;8.910;2023-05-13T09:20:34;23.70;94.10
33095;DHT22;19459;53.044;8.910;2023-05-13T09:23:05;23.70;93.40
33095;DHT22;19459;53.044;8.910;2023-05-13T09:25:33;23.80;93.50
33095;DHT22;19459;53.044;8.910;2023-05-13T09:28:00;24.00;92.20
33095;DHT22;19459;53.044;8.910;2023-05-13T09:30:35;24.10;92.00
33095;DHT22;19459;53.044;8.910;2023-05-13T09:33:13;24.10;92.20
33095;DHT22;19459;53.044;8.910;2023-05-13T09:35:53;24.10;92.90
33095;DHT22;19459;53.044;8.910;2023-05-13T09:38:20;24.40;91.60
33095;DHT22;19459;53.044;8.910;2023-05-13T09:40:57;24.60;91.90
33095;DHT22;19459;53.044;8.910;2023-05-13T09:43:25;24.80;91.60
33095;DHT22;19459;53.044;8.910;2023-05-13T09:45:57;25.00;91.80
33095;DHT22;19459;53.044;8.910;2023-05-13T09:48:27;25.10;90.90
33095;DHT22;19459;53.044;8.910;2023-05-13T09:50:55;24.70;90.30
33095;DHT22;19459;53.044;8.910;2023-05-13T09:53:23;24.90;91.40
33095;DHT22;19459;53.044;8.910;2023-05-13T09:55:51;24.90;90.20
33095;DHT22;19459;53.044;8.910;2023-05-13T09:58:20;25.00;91.30
33095;DHT22;19459;53.044;8.910;2023-05-13T10:00:47;25.10;90.10
33095;DHT22;19459;53.044;8.910;2023-05-13T10:03:13;25.20;90.40
33095;DHT22;19459;53.044;8.910;2023-05-13T10:05:39;25.40;90.70
33095;DHT22;19459;53.044;8.910;2023-05-13T10:08:10;25.60;89.90
33095;DHT22;19459;53.044;8.910;2023-05-13T10:10:37;25.90;90.00
33095;DHT22;19459;53.044;8.910;2023-05-13T10:13:08;26.00;90.10
33095;DHT22;19459;53.044;8.910;2023-05-13T10:15:56;26.20;89.80
33095;DHT22;19459;53.044;8.910;2023-05-13T10:18:22;26.10;86.10
33095;DHT22;19459;53.044;8.910;2023-05-13T10:20:48;26.00;85.10
33095;DHT22;19459;53.044;8.910;2023-05-13T10:23:18;26.40;87.00
33095;DHT22;19459;53.044;8.910;2023-05-13T10:25:46;26.60;88.30
33095;DHT22;19459;53.044;8.910;2023-05-13T10:28:13;26.70;87.60
33095;DHT22;19459;53.044;8.910;2023-05-13T10:30:40;26.70;85.50
33095;DHT22;19459;53.044;8.910;2023-05-13T10:33:06;26.50;82.90
33095;DHT22;19459;53.044;8.910;2023-05-13T10:35:36;26.40;84.30
33095;DHT22;19459;53.044;8.910;2023-05-13T10:41:06;26.60;84.60
33095;DHT22;19459;53.044;8.910;2023-05-13T10:43:34;27.00;87.00
33095;DHT22;19459;53.044;8.910;2023-05-13T10:46:05;27.20;83.20
33095;DHT22;19459;53.044;8.910;2023-05-13T10:48:48;27.00;83.50
33095;DHT22;19459;53.044;8.910;2023-05-13T10:51:16;27.10;84.50
33095;DHT22;19459;53.044;8.910;2023-05-13T10:53:50;27.10;83.50
33095;DHT22;19459;53.044;8.910;2023-05-13T10:56:23;27.00;82.00
33095;DHT22;19459;53.044;8.910;2023-05-13T10:59:16;27.10;82.30
33095;DHT22;19459;53.044;8.910;2023-05-13T11:01:42;27.30;83.20
33095;DHT22;19459;53.044;8.910;2023-05-13T11:04:19;27.40;81.30
33095;DHT22;19459;53.044;8.910;2023-05-13T11:06:49;27.70;82.30
33095;DHT22;19459;53.044;8.910;2023-05-13T11:11:51;27.50;80.10
33095;DHT22;19459;53.044;8.910;2023-05-13T11:14:19;27.20;80.70
33095;DHT22;19459;53.044;8.910;2023-05-13T11:19:28;27.00;80.50
33095;DHT22;19459;53.044;8.910;2023-05-13T11:22:41;27.10;79.20
33095;DHT22;19459;53.044;8.910;2023-05-13T11:25:01;27.30;78.20
33095;DHT22;19459;53.044;8.910;2023-05-13T11:27:27;27.60;82.90
33095;DHT22;19459;53.044;8.910;2023-05-13T11:29:58;27.90;77.90
33095;DHT22;19459;53.044;8.910;2023-05-13T11:32:53;28.40;80.00
33095;DHT22;19459;53.044;8.910;2023-05-13T11:35:30;28.90;78.80
33095;DHT22;19459;53.044;8.910;2023-05-13T11:38:01;29.10;79.80
33095;DHT22;19459;53.044;8.910;2023-05-13T11:40:28;28.90;76.40
33095;DHT22;19459;53.044;8.910;2023-05-13T11:42:55;28.20;76.30
33095;DHT22;19459;53.044;8.910;2023-05-13T11:45:23;27.50;77.30
33095;DHT22;19459;53.044;8.910;2023-05-13T11:47:53;26.60;77.50
33095;DHT22;19459;53.044;8.910;2023-05-13T11:50:26;26.10;78.90
33095;DHT22;19459;53.044;8.910;2023-05-13T11:53:01;25.90;80.20
33095;DHT22;19459;53.044;8.910;2023-05-13T11:55:31;25.60;79.30
33095;DHT22;19459;53.044;8.910;2023-05-13T11:58:02;25.70;80.00
33095;DHT22;19459;53.044;8.910;2023-05-13T12:00:32;25.60;78.70
33095;DHT22;19459;53.044;8.910;2023-05-13T12:03:01;25.30;79.90
33095;DHT22;19459;53.044;8.910;2023-05-13T12:05:34;25.10;80.40
33095;DHT22;19459;53.044;8.910;2023-05-13T12:08:00;24.80;81.20
33095;DHT22;19459;53.044;8.910;2023-05-13T12:10:26;24.80;80.30
33095;DHT22;19459;53.044;8.910;2023-05-13T12:12:52;24.70;79.10
33095;DHT22;19459;53.044;8.910;2023-05-13T12:15:19;24.50;77.30
33095;DHT22;19459;53.044;8.910;2023-05-13T12:17:47;24.30;80.10
33095;DHT22;19459;53.044;8.910;2023-05-13T12:20:21;24.00;80.50
33095;DHT22;19459;53.044;8.910;2023-05-13T12:22:50;24.10;79.30
33095;DHT22;19459;53.044;8.910;2023-05-13T12:28:22;24.60;80.70
33095;DHT22;19459;53.044;8.910;2023-05-13T12:30:57;24.80;79.80
33095;DHT22;19459;53.044;8.910;2023-05-13T12:36:17;24.60;78.80
33095;DHT22;19459;53.044;8.910;2023-05-13T12:39:04;24.60;80.10
33095;DHT22;19459;53.044;8.910;2023-05-13T12:41:36;24.50;78.40
33095;DHT22;19459;53.044;8.910;2023-05-13T12:44:08;25.00;82.10
33095;DHT22;19459;53.044;8.910;2023-05-13T12:46:50;25.60;79.00
33095;DHT22;19459;53.044;8.910;2023-05-13T12:49:16;25.60;75.80
33095;DHT22;19459;53.044;8.910;2023-05-13T12:51:42;25.60;77.60
33095;DHT22;19459;53.044;8.910;2023-05-13T12:54:09;25.60;78.40
33095;DHT22;19459;53.044;8.910;2023-05-13T12:56:36;25.30;78.50
33095;DHT22;19459;53.044;8.910;2023-05-13T12:59:04;25.00;78.20
33095;DHT22;19459;53.044;8.910;2023-05-13T13:01:30;24.90;78.20
33095;DHT22;19459;53.044;8.910;2023-05-13T13:03:56;25.20;79.80
33095;DHT22;19459;53.044;8.910;2023-05-13T13:06:22;25.70;81.10
33095;DHT22;19459;53.044;8.910;2023-05-13T13:08:48;26.00;76.60
33095;DHT22;19459;53.044;8.910;2023-05-13T13:11:14;26.60;77.80
33095;DHT22;19459;53.044;8.910;2023-05-13T13:13:43;26.80;75.30
33095;DHT22;19459;53.044;8.910;2023-05-13T13:16:10;27.20;77.20
33095;DHT22;19459;53.044;8.910;2023-05-13T13:18:36;27.50;74.10
33095;DHT22;19459;53.044;8.910;2023-05-13T13:21:01;27.00;71.00
33095;DHT22;19459;53.044;8.910;2023-05-13T13:23:29;27.20;74.50
33095;DHT22;19459;53.044;8.910;2023-05-13T13:25:55;27.80;73.00
33095;DHT22;19459;53.044;8.910;2023-05-13T13:28:26;28.00;69.10
33095;DHT22;19459;53.044;8.910;2023-05-13T13:30:53;28.30;70.20
33095;DHT22;19459;53.044;8.910;2023-05-13T13:33:19;28.50;71.10
33095;DHT22;19459;53.044;8.910;2023-05-13T13:35:46;28.70;72.80
33095;DHT22;19459;53.044;8.910;2023-05-13T13:38:13;28.70;72.30
33095;DHT22;19459;53.044;8.910;2023-05-13T13:40:39;28.70;72.70
33095;DHT22;19459;53.044;8.910;2023-05-13T13:43:05;28.90;75.00
33095;DHT22;19459;53.044;8.910;2023-05-13T13:45:32;28.70;73.00
33095;DHT22;19459;53.044;8.910;2023-05-13T13:47:58;29.00;73.20
33095;DHT22;19459;53.044;8.910;2023-05-13T13:50:25;29.00;69.10
33095;DHT22;19459;53.044;8.910;2023-05-13T13:52:51;28.40;69.80
33095;DHT22;19459;53.044;8.910;2023-05-13T13:55:18;27.70;70.40
33095;DHT22;19459;53.044;8.910;2023-05-13T13:57:44;27.10;71.20
33095;DHT22;19459;53.044;8.910;2023-05-13T14:00:10;26.40;71.50
33095;DHT22;19459;53.044;8.910;2023-05-13T14:02:36;25.90;71.00
33095;DHT22;19459;53.044;8.910;2023-05-13T14:05:02;25.40;70.20
33095;DHT22;19459;53.044;8.910;2023-05-13T14:07:28;25.20;72.30
33095;DHT22;19459;53.044;8.910;2023-05-13T14:09:54;25.30;71.60
33095;DHT22;19459;53.044;8.910;2023-05-13T14:12:21;25.70;73.10
33095;DHT22;19459;53.044;8.910;2023-05-13T14:14:49;26.30;71.60
33095;DHT22;19459;53.044;8.910;2023-05-13T14:17:15;26.90;69.70
33095;DHT22;19459;53.044;8.910;2023-05-13T14:19:41;27.30;70.60
33095;DHT22;19459;53.044;8.910;2023-05-13T14:22:07;27.10;69.50
33095;DHT22;19459;53.044;8.910;2023-05-13T14:24:33;27.50;69.50
33095;DHT22;19459;53.044;8.910;2023-05-13T14:26:59;27.60;70.80
33095;DHT22;19459;53.044;8.910;2023-05-13T14:29:25;28.00;72.80
33095;DHT22;19459;53.044;8.910;2023-05-13T14:31:52;27.90;69.60
33095;DHT22;19459;53.044;8.910;2023-05-13T14:34:17;27.50;69.60
33095;DHT22;19459;53.044;8.910;2023-05-13T14:36:43;26.90;69.70
33095;DHT22;19459;53.044;8.910;2023-05-13T14:39:09;26.50;70.60
33095;DHT22;19459;53.044;8.910;2023-05-13T14:41:36;26.00;70.60
33095;DHT22;19459;53.044;8.910;2023-05-13T14:44:02;26.00;70.70
33095;DHT22;19459;53.044;8.910;2023-05-13T14:46:28;26.00;71.10
33095;DHT22;19459;53.044;8.910;2023-05-13T14:48:54;26.00;69.70
33095;DHT22;19459;53.044;8.910;2023-05-13T14:51:19;26.40;68.70
33095;DHT22;19459;53.044;8.910;2023-05-13T14:53:45;26.80;71.00
33095;DHT22;19459;53.044;8.910;2023-05-13T14:56:11;27.10;69.50
33095;DHT22;19459;53.044;8.910;2023-05-13T14:58:37;27.30;69.40
33095;DHT22;19459;53.044;8.910;2023-05-13T15:01:03;27.60;70.00
33095;DHT22;19459;53.044;8.910;2023-05-13T15:03:28;27.50;65.00
33095;DHT22;19459;53.044;8.910;2023-05-13T15:05:54;27.50;68.40
33095;DHT22;19459;53.044;8.910;2023-05-13T15:08:21;27.20;69.30
33095;DHT22;19459;53.044;8.910;2023-05-13T15:10:47;27.00;68.20
33095;DHT22;19459;53.044;8.910;2023-05-13T15:13:13;26.70;67.60
33095;DHT22;19459;53.044;8.910;2023-05-13T15:15:39;26.30;68.90
33095;DHT22;19459;53.044;8.910;2023-05-13T15:18:04;26.00;68.20
33095;DHT22;19459;53.044;8.910;2023-05-13T15:20:30;25.70;70.00
33095;DHT22;19459;53.044;8.910;2023-05-13T15:22:56;25.30;69.70
33095;DHT22;19459;53.044;8.910;2023-05-13T15:25:22;25.40;72.70
33095;DHT22;19459;53.044;8.910;2023-05-13T15:27:48;25.50;70.20
33095;DHT22;19459;53.044;8.910;2023-05-13T15:30:15;25.60;70.20
33095;DHT22;19459;53.044;8.910;2023-05-13T15:32:41;25.70;70.10
33095;DHT22;19459;53.044;8.910;2023-05-13T15:35:07;25.90;69.00
33095;DHT22;19459;53.044;8.910;2023-05-13T15:37:33;26.00;70.80
33095;DHT22;19459;53.044;8.910;2023-05-13T15:39:59;26.20;68.70
33095;DHT22;19459;53.044;8.910;2023-05-13T15:42:24;25.90;69.70
33095;DHT22;19459;53.044;8.910;2023-05-13T15:44:51;25.70;68.60
33095;DHT22;19459;53.044;8.910;2023-05-13T15:47:17;25.80;68.10